Time;durP1;ratioP1;P1;durP2;ratioP2;P2;SDS_P1;SDS_P2;PMS_P1;PMS_P2;Temp;Humidity;BMP_temperature;BMP_pressure;BME280_temperature;BME280_humidity;BME280_pressure;Samples;Min_cycle;Max_cycle;Signal;HPM_P1;HPM_P2
2021/12/14 00:01:26;;;;;;;13.40;5.60;;;;;;;;;;5023242;28;20106;-71
2021/12/14 00:03:57;;;;;;;12.40;5.00;;;;;;;;;;5040579;28;20025;-72
2021/12/14 00:06:24;;;;;;;12.57;5.57;;;;;;;;;;5030949;28;20587;-72
2021/12/14 00:08:56;;;;;;;10.05;4.28;;;;;;;;;;5013512;28;20044;-71
2021/12/14 00:11:46;;;;;;;12.45;5.20;;;;;;;;;;5024545;28;20100;-72
2021/12/14 00:16:51;;;;;;;12.13;5.63;;;;;;;;;;5028637;28;20025;-71
2021/12/14 00:19:18;;;;;;;12.75;5.88;;;;;;;;;;5007971;28;20029;-71
2021/12/14 00:21:50;;;;;;;9.27;4.55;;;;;;;;;;5038982;28;20084;-72
2021/12/14 00:24:16;;;;;;;8.48;3.83;;;;;;;;;;5027530;28;20041;-72
2021/12/14 00:26:54;;;;;;;10.05;3.55;;;;;;;;;;5040580;28;20029;-72
2021/12/14 00:29:26;;;;;;;4.47;2.53;;;;;;;;;;5034762;28;20022;-71
2021/12/14 00:31:54;;;;;;;7.03;3.38;;;;;;;;;;5007561;28;20053;-71
2021/12/14 00:34:35;;;;;;;5.95;2.78;;;;;;;;;;5016930;28;20042;-71
2021/12/14 00:37:02;;;;;;;5.63;2.20;;;;;;;;;;5032021;28;20036;-72
2021/12/14 00:39:28;;;;;;;4.35;2.10;;;;;;;;;;5034388;28;20036;-72
2021/12/14 00:41:54;;;;;;;4.22;1.92;;;;;;;;;;5041095;28;20030;-72
2021/12/14 00:44:21;;;;;;;3.60;2.10;;;;;;;;;;5039195;28;20048;-72
2021/12/14 00:46:47;;;;;;;4.93;2.10;;;;;;;;;;5035751;28;20042;-71
2021/12/14 00:49:14;;;;;;;6.47;2.20;;;;;;;;;;5036631;28;20042;-72
2021/12/14 00:51:39;;;;;;;3.13;1.75;;;;;;;;;;5031709;28;20033;-72
2021/12/14 00:54:10;;;;;;;5.18;2.17;;;;;;;;;;5035089;28;20042;-71
2021/12/14 00:56:36;;;;;;;7.65;2.28;;;;;;;;;;5027633;28;20034;-72
2021/12/14 00:59:08;;;;;;;5.75;2.17;;;;;;;;;;5026574;28;20113;-70
2021/12/14 01:01:41;;;;;;;11.23;2.38;;;;;;;;;;5046244;28;20052;-71
2021/12/14 01:04:14;;;;;;;7.60;2.80;;;;;;;;;;5010581;28;20022;-70
2021/12/14 01:06:44;;;;;;;14.45;2.80;;;;;;;;;;5023011;28;20063;-71
2021/12/14 01:09:15;;;;;;;7.47;2.80;;;;;;;;;;5029091;28;20029;-72
2021/12/14 01:11:45;;;;;;;6.55;2.85;;;;;;;;;;5046231;28;20041;-72
2021/12/14 01:14:47;;;;;;;10.98;2.85;;;;;;;;;;5046184;28;20470;-72
2021/12/14 01:17:27;;;;;;;8.52;2.70;;;;;;;;;;5029597;28;20041;-71
2021/12/14 01:19:59;;;;;;;9.80;2.85;;;;;;;;;;5020619;28;20093;-72
2021/12/14 01:22:44;;;;;;;5.82;2.47;;;;;;;;;;5010252;28;20125;-72
2021/12/14 01:25:31;;;;;;;9.43;2.63;;;;;;;;;;5034061;28;20021;-70
2021/12/14 01:28:04;;;;;;;9.02;3.00;;;;;;;;;;5036161;28;20021;-72
2021/12/14 01:31:12;;;;;;;17.08;2.78;;;;;;;;;;5032220;28;20092;-71
2021/12/14 01:33:41;;;;;;;7.38;3.22;;;;;;;;;;5041780;28;20038;-72
2021/12/14 01:36:24;;;;;;;18.45;3.60;;;;;;;;;;5028596;28;20032;-71
2021/12/14 01:41:38;;;;;;;19.50;3.72;;;;;;;;;;5039947;28;20022;-71
2021/12/14 01:44:05;;;;;;;3.53;1.95;;;;;;;;;;5011476;28;20070;-70
2021/12/14 01:46:48;;;;;;;4.47;2.03;;;;;;;;;;5012316;28;20025;-71
2021/12/14 01:49:16;;;;;;;4.93;2.10;;;;;;;;;;5039185;28;20085;-71
2021/12/14 01:51:51;;;;;;;5.30;2.38;;;;;;;;;;5035781;28;20032;-72
2021/12/14 01:54:20;;;;;;;8.77;2.85;;;;;;;;;;5044252;28;20034;-70
2021/12/14 01:56:52;;;;;;;7.63;2.33;;;;;;;;;;5040320;28;20173;-70
2021/12/14 01:59:25;;;;;;;11.00;2.75;;;;;;;;;;5031354;28;20045;-72
2021/12/14 02:02:09;;;;;;;8.37;2.27;;;;;;;;;;5038340;28;20025;-72
2021/12/14 02:04:40;;;;;;;5.68;2.13;;;;;;;;;;5019422;28;20450;-71
2021/12/14 02:07:08;;;;;;;7.18;2.95;;;;;;;;;;5037294;28;20093;-72
2021/12/14 02:09:35;;;;;;;5.82;2.58;;;;;;;;;;5020972;28;20120;-74
2021/12/14 02:12:09;;;;;;;9.20;2.70;;;;;;;;;;5036360;28;20037;-72
2021/12/14 02:14:35;;;;;;;;;;;;;;;;;;5032795;28;20097;-72
2021/12/14 02:17:04;;;;;;;5.10;2.10;;;;;;;;;;5027808;28;19924;-70
2021/12/14 02:19:32;;;;;;;7.60;2.13;;;;;;;;;;5037691;28;20037;-70
2021/12/14 02:21:58;;;;;;;4.00;1.70;;;;;;;;;;5038244;28;20061;-70
2021/12/14 02:24:26;;;;;;;4.10;1.27;;;;;;;;;;5030662;28;20037;-72
2021/12/14 02:26:54;;;;;;;1.73;1.27;;;;;;;;;;5021111;28;20072;-71
2021/12/14 02:29:27;;;;;;;3.38;1.67;;;;;;;;;;5034945;28;20029;-70
2021/12/14 02:32:00;;;;;;;3.70;1.90;;;;;;;;;;5039604;28;20089;-72
2021/12/14 02:34:26;;;;;;;3.45;1.50;;;;;;;;;;5045125;28;20041;-71
2021/12/14 02:36:52;;;;;;;1.55;1.02;;;;;;;;;;5043724;28;20036;-70
2021/12/14 02:39:46;;;;;;;2.20;0.93;;;;;;;;;;5016683;28;20037;-71
2021/12/14 02:42:20;;;;;;;1.98;0.80;;;;;;;;;;5025330;28;20037;-71
2021/12/14 02:44:48;;;;;;;4.72;1.38;;;;;;;;;;5022592;28;20470;-71
2021/12/14 02:47:16;;;;;;;1.90;0.75;;;;;;;;;;5027582;28;20088;-70
2021/12/14 02:49:43;;;;;;;1.83;1.10;;;;;;;;;;5037198;28;20060;-72
2021/12/14 02:52:12;;;;;;;1.88;0.95;;;;;;;;;;5043599;28;20032;-71
2021/12/14 02:54:58;;;;;;;1.45;0.90;;;;;;;;;;5018359;28;20161;-72
2021/12/14 02:57:28;;;;;;;1.40;0.90;;;;;;;;;;5042987;28;20056;-71
2021/12/14 02:59:56;;;;;;;1.63;0.93;;;;;;;;;;5031562;28;20041;-70
2021/12/14 03:02:29;;;;;;;1.67;1.00;;;;;;;;;;5034520;28;20038;-70
2021/12/14 03:04:58;;;;;;;2.97;1.40;;;;;;;;;;5025898;28;20085;-70
2021/12/14 03:07:31;;;;;;;2.03;1.30;;;;;;;;;;5013375;28;20433;-70
2021/12/14 03:12:47;;;;;;;17.45;2.28;;;;;;;;;;5025429;28;20030;-71
2021/12/14 03:15:19;;;;;;;51.58;3.20;;;;;;;;;;5019115;28;20064;-71
2021/12/14 03:17:49;;;;;;;5.93;2.38;;;;;;;;;;5010617;28;20510;-72
2021/12/14 03:20:30;;;;;;;12.32;2.20;;;;;;;;;;5042804;28;20040;-71
2021/12/14 03:23:01;;;;;;;4.32;1.77;;;;;;;;;;5024562;28;20022;-70
2021/12/14 03:25:28;;;;;;;57.72;3.63;;;;;;;;;;5031327;28;20084;-72
2021/12/14 03:27:56;;;;;;;47.88;3.40;;;;;;;;;;5023806;28;20501;-70
2021/12/14 03:30:32;;;;;;;130.80;5.82;;;;;;;;;;5032373;28;20040;-72
2021/12/14 03:33:02;;;;;;;120.15;5.22;;;;;;;;;;5011534;28;20041;-70
2021/12/14 03:35:55;;;;;;;72.63;4.45;;;;;;;;;;5019372;28;20146;-71
2021/12/14 03:38:52;;;;;;;43.33;3.08;;;;;;;;;;5036006;28;20045;-70
2021/12/14 03:41:22;;;;;;;100.82;4.72;;;;;;;;;;5014096;28;20109;-70
2021/12/14 03:44:09;;;;;;;112.53;5.45;;;;;;;;;;5017053;28;20052;-72
2021/12/14 03:46:48;;;;;;;29.63;3.25;;;;;;;;;;5040602;28;20036;-71
2021/12/14 03:49:15;;;;;;;59.80;3.92;;;;;;;;;;5039384;28;20533;-70
2021/12/14 03:51:43;;;;;;;62.97;3.83;;;;;;;;;;5007828;28;20040;-71
2021/12/14 03:54:10;;;;;;;115.75;5.47;;;;;;;;;;5036583;28;20116;-71
2021/12/14 03:56:37;;;;;;;148.80;6.30;;;;;;;;;;5043336;28;20064;-70
2021/12/14 03:59:03;;;;;;;90.72;5.15;;;;;;;;;;5015262;28;20048;-72
2021/12/14 04:01:34;;;;;;;116.93;5.28;;;;;;;;;;5036524;28;20033;-72
2021/12/14 04:04:14;;;;;;;154.07;6.43;;;;;;;;;;5025127;28;20045;-71
2021/12/14 04:06:42;;;;;;;126.47;5.55;;;;;;;;;;5008932;28;20419;-72
2021/12/14 04:09:11;;;;;;;104.80;5.63;;;;;;;;;;5035013;28;20567;-72
2021/12/14 04:11:36;;;;;;;14.55;4.35;;;;;;;;;;5006138;28;20022;-72
2021/12/14 04:14:03;;;;;;;26.30;4.70;;;;;;;;;;5017772;28;20043;-71
2021/12/14 04:16:30;;;;;;;66.72;6.05;;;;;;;;;;5022764;28;20040;-72
2021/12/14 04:19:03;;;;;;;102.72;7.15;;;;;;;;;;5020346;28;20038;-70
2021/12/14 04:21:29;;;;;;;43.65;5.82;;;;;;;;;;5009419;28;20030;-71
2021/12/14 04:23:55;;;;;;;93.28;6.53;;;;;;;;;;5041942;28;20026;-71
2021/12/14 04:26:21;;;;;;;66.53;6.05;;;;;;;;;;5030498;28;20033;-72
2021/12/14 04:28:55;;;;;;;46.53;5.57;;;;;;;;;;5006001;28;20133;-71
2021/12/14 04:31:21;;;;;;;28.00;6.22;;;;;;;;;;5041333;28;20042;-73
2021/12/14 04:33:49;;;;;;;27.08;5.30;;;;;;;;;;5036282;28;20018;-71
2021/12/14 04:36:19;;;;;;;29.67;7.05;;;;;;;;;;5041631;28;20026;-73
2021/12/14 04:38:54;;;;;;;29.90;6.88;;;;;;;;;;5036866;28;20029;-73
2021/12/14 04:52:28;;;;;;;21.10;5.53;;;;;;;;;;5031556;28;20044;-71
2021/12/14 04:54:59;;;;;;;14.25;4.93;;;;;;;;;;5010458;28;20037;-70
2021/12/14 04:57:36;;;;;;;11.60;4.72;;;;;;;;;;5042215;28;20061;-71
2021/12/14 05:00:34;;;;;;;26.95;5.55;;;;;;;;;;5017388;28;20559;-70
2021/12/14 05:03:01;;;;;;;20.88;6.13;;;;;;;;;;5024795;28;20029;-70
2021/12/14 05:05:32;;;;;;;81.47;7.85;;;;;;;;;;5014736;28;20108;-71
2021/12/14 05:10:38;;;;;;;46.83;5.82;;;;;;;;;;5034974;28;20080;-71
2021/12/14 05:13:05;;;;;;;61.70;6.00;;;;;;;;;;5037396;28;20025;-71
2021/12/14 05:15:31;;;;;;;60.60;6.03;;;;;;;;;;5021600;28;20037;-71
2021/12/14 05:17:57;;;;;;;76.93;5.80;;;;;;;;;;5039516;28;20036;-70
2021/12/14 05:20:23;;;;;;;132.98;7.30;;;;;;;;;;5010781;28;20025;-71
2021/12/14 05:22:49;;;;;;;116.68;7.55;;;;;;;;;;5039252;28;20034;-73
2021/12/14 05:25:26;;;;;;;122.70;6.47;;;;;;;;;;5033899;28;20036;-71
2021/12/14 05:27:57;;;;;;;94.28;6.15;;;;;;;;;;5006762;28;20034;-72
2021/12/14 05:30:29;;;;;;;125.82;6.28;;;;;;;;;;5030060;28;20065;-71
2021/12/14 05:33:08;;;;;;;120.30;5.88;;;;;;;;;;5037262;28;20036;-71
2021/12/14 05:35:35;;;;;;;72.15;4.88;;;;;;;;;;5031581;28;20045;-71
2021/12/14 05:38:03;;;;;;;81.65;5.35;;;;;;;;;;5035640;28;20040;-70
2021/12/14 05:43:14;;;;;;;41.80;3.70;;;;;;;;;;5040535;28;20061;-70
2021/12/14 05:45:44;;;;;;;57.25;4.25;;;;;;;;;;5025848;28;20038;-71
2021/12/14 05:48:15;;;;;;;114.53;5.20;;;;;;;;;;5016224;28;20041;-72
2021/12/14 05:50:45;;;;;;;89.30;4.68;;;;;;;;;;5045873;28;20030;-71
2021/12/14 05:53:34;;;;;;;65.03;4.18;;;;;;;;;;5026363;28;20092;-72
2021/12/14 05:56:05;;;;;;;54.58;3.78;;;;;;;;;;5019822;28;20030;-71
2021/12/14 05:58:31;;;;;;;77.30;5.13;;;;;;;;;;5033737;28;20042;-71
2021/12/14 06:01:04;;;;;;;58.97;3.67;;;;;;;;;;5027162;28;20048;-70
2021/12/14 06:03:35;;;;;;;53.53;3.95;;;;;;;;;;5065324;28;20029;-72
2021/12/14 06:06:02;;;;;;;49.80;3.63;;;;;;;;;;5014503;28;20037;-72
2021/12/14 06:08:31;;;;;;;54.40;3.55;;;;;;;;;;5038745;28;20033;-70
2021/12/14 06:10:57;;;;;;;34.15;3.83;;;;;;;;;;5045330;28;20458;-70
2021/12/14 06:13:35;;;;;;;64.18;4.10;;;;;;;;;;5041393;28;20304;-72
2021/12/14 06:16:01;;;;;;;76.50;4.50;;;;;;;;;;5038181;28;20271;-70
2021/12/14 06:18:27;;;;;;;43.03;3.92;;;;;;;;;;5035363;28;20033;-71
2021/12/14 06:20:52;;;;;;;29.77;3.47;;;;;;;;;;5035318;28;20113;-72
2021/12/14 06:23:29;;;;;;;22.08;3.53;;;;;;;;;;5033931;28;20037;-72
2021/12/14 06:25:55;;;;;;;18.02;3.60;;;;;;;;;;5033495;28;20029;-72
2021/12/14 06:28:31;;;;;;;19.35;4.00;;;;;;;;;;5026328;28;20029;-71
2021/12/14 06:30:58;;;;;;;42.65;4.65;;;;;;;;;;5025539;28;20042;-71
2021/12/14 06:33:29;;;;;;;64.57;4.65;;;;;;;;;;5033712;28;20038;-70
2021/12/14 06:35:58;;;;;;;32.90;4.13;;;;;;;;;;5025920;28;20089;-71
2021/12/14 06:38:29;;;;;;;41.55;3.85;;;;;;;;;;5041470;28;20029;-71
2021/12/14 06:41:03;;;;;;;25.50;4.40;;;;;;;;;;5044423;28;20036;-71
2021/12/14 06:43:37;;;;;;;14.63;4.03;;;;;;;;;;5044005;28;20405;-71
2021/12/14 06:46:12;;;;;;;11.82;4.32;;;;;;;;;;5045445;28;20029;-71
2021/12/14 06:48:54;;;;;;;10.30;4.35;;;;;;;;;;5024534;28;20021;-72
2021/12/14 06:51:26;;;;;;;18.23;5.28;;;;;;;;;;5041862;28;20060;-71
2021/12/14 06:53:57;;;;;;;12.60;4.43;;;;;;;;;;5045119;28;20076;-70
2021/12/14 06:56:26;;;;;;;13.05;5.18;;;;;;;;;;5030924;28;20038;-71
2021/12/14 06:59:10;;;;;;;12.27;5.15;;;;;;;;;;5025268;28;20037;-72
2021/12/14 07:01:40;;;;;;;22.70;5.57;;;;;;;;;;5021389;28;20080;-71
2021/12/14 07:04:11;;;;;;;19.55;5.32;;;;;;;;;;5016567;28;20044;-71
2021/12/14 07:06:48;;;;;;;15.88;5.63;;;;;;;;;;5034963;28;20033;-72
2021/12/14 07:09:18;;;;;;;12.10;4.82;;;;;;;;;;5044716;28;20034;-71
2021/12/14 07:11:47;;;;;;;12.55;5.32;;;;;;;;;;5032699;28;20528;-71
2021/12/14 07:14:36;;;;;;;9.88;3.75;;;;;;;;;;5036575;28;20283;-72
2021/12/14 07:17:14;;;;;;;11.98;5.35;;;;;;;;;;5014463;28;20598;-70
2021/12/14 07:19:53;;;;;;;14.57;5.88;;;;;;;;;;5026474;28;20029;-71
2021/12/14 07:22:22;;;;;;;13.73;4.63;;;;;;;;;;5025063;28;20053;-69
2021/12/14 07:25:13;;;;;;;13.07;5.32;;;;;;;;;;5021950;28;20709;-72
2021/12/14 07:27:41;;;;;;;12.38;5.43;;;;;;;;;;5024832;28;20022;-72
2021/12/14 07:30:13;;;;;;;11.77;5.28;;;;;;;;;;5030539;28;20073;-70
2021/12/14 07:32:57;;;;;;;15.40;5.68;;;;;;;;;;5013834;28;20029;-71
2021/12/14 07:35:34;;;;;;;15.25;5.40;;;;;;;;;;5029490;28;20124;-71
2021/12/14 07:38:25;;;;;;;16.23;5.70;;;;;;;;;;5038305;28;20037;-72
2021/12/14 07:41:20;;;;;;;16.92;4.93;;;;;;;;;;5036554;28;20021;-72
2021/12/14 07:43:54;;;;;;;11.18;4.72;;;;;;;;;;5042555;28;20073;-74
2021/12/14 07:46:40;;;;;;;10.75;4.32;;;;;;;;;;5042339;28;20083;-71
2021/12/14 07:49:42;;;;;;;15.00;5.47;;;;;;;;;;5030264;28;20133;-71
2021/12/14 07:52:08;;;;;;;14.30;5.15;;;;;;;;;;5003199;28;20042;-73
2021/12/14 07:54:42;;;;;;;13.48;5.03;;;;;;;;;;5025415;28;20056;-72
2021/12/14 07:57:14;;;;;;;14.63;5.50;;;;;;;;;;5043544;28;20053;-71
2021/12/14 07:59:47;;;;;;;14.45;5.07;;;;;;;;;;5011061;28;20036;-70
2021/12/14 08:02:14;;;;;;;10.02;4.50;;;;;;;;;;5043111;28;20033;-70
2021/12/14 08:04:43;;;;;;;12.73;4.60;;;;;;;;;;5025435;28;20128;-69
2021/12/14 08:07:09;;;;;;;12.55;4.50;;;;;;;;;;5039296;28;20555;-70
2021/12/14 08:09:50;;;;;;;9.02;3.63;;;;;;;;;;5015689;28;20037;-71
2021/12/14 08:12:52;;;;;;;8.38;3.90;;;;;;;;;;5025960;28;20045;-71
2021/12/14 08:15:38;;;;;;;11.82;4.45;;;;;;;;;;4994835;28;20470;-70
2021/12/14 08:18:11;;;;;;;11.90;3.90;;;;;;;;;;5026245;28;20025;-70
2021/12/14 08:20:45;;;;;;;13.70;4.13;;;;;;;;;;5020617;28;20029;-70
2021/12/14 08:23:33;;;;;;;8.63;3.35;;;;;;;;;;5026313;28;20021;-70
2021/12/14 08:26:18;;;;;;;10.02;4.05;;;;;;;;;;5043667;28;20036;-70
2021/12/14 08:29:00;;;;;;;10.82;3.95;;;;;;;;;;5039451;28;20030;-70
2021/12/14 08:31:45;;;;;;;10.32;3.83;;;;;;;;;;5021464;28;20517;-70
2021/12/14 08:34:25;;;;;;;12.98;3.78;;;;;;;;;;5025682;28;20025;-70
2021/12/14 08:37:00;;;;;;;10.95;3.72;;;;;;;;;;5043361;28;20029;-69
2021/12/14 08:39:31;;;;;;;11.18;3.80;;;;;;;;;;5024078;28;20246;-71
2021/12/14 08:42:23;;;;;;;8.52;3.40;;;;;;;;;;5043811;28;20387;-70
2021/12/14 08:44:54;;;;;;;10.02;3.60;;;;;;;;;;5025297;28;20037;-71
2021/12/14 08:47:27;;;;;;;16.05;3.90;;;;;;;;;;5038603;28;20022;-71
2021/12/14 08:49:54;;;;;;;10.60;3.47;;;;;;;;;;5023923;28;20045;-71
2021/12/14 08:52:21;;;;;;;9.65;3.72;;;;;;;;;;5006366;28;20088;-71
2021/12/14 08:54:47;;;;;;;10.98;3.85;;;;;;;;;;5023572;28;20129;-70
2021/12/14 08:57:22;;;;;;;11.48;3.95;;;;;;;;;;5006006;28;20022;-72
2021/12/14 08:59:52;;;;;;;12.00;4.68;;;;;;;;;;5031672;28;20060;-70
2021/12/14 09:02:19;;;;;;;11.93;4.13;;;;;;;;;;5025399;28;20034;-70
2021/12/14 09:04:58;;;;;;;14.75;4.13;;;;;;;;;;5043384;28;20509;-69
2021/12/14 09:07:27;;;;;;;8.45;3.90;;;;;;;;;;5025633;28;20033;-71
2021/12/14 09:09:55;;;;;;;8.10;3.70;;;;;;;;;;5025560;28;20029;-71
2021/12/14 09:12:33;;;;;;;8.88;3.45;;;;;;;;;;5041383;28;20037;-71
2021/12/14 09:15:20;;;;;;;14.35;3.88;;;;;;;;;;5044898;28;20323;-71
2021/12/14 09:17:46;;;;;;;12.05;3.83;;;;;;;;;;5046313;28;20025;-71
2021/12/14 09:20:24;;;;;;;10.50;3.25;;;;;;;;;;5041845;28;20053;-70
2021/12/14 09:22:54;;;;;;;17.00;4.28;;;;;;;;;;5012808;28;20030;-70
2021/12/14 09:25:24;;;;;;;9.90;3.72;;;;;;;;;;5036313;28;20025;-71
2021/12/14 09:27:51;;;;;;;10.02;4.15;;;;;;;;;;5034306;28;20026;-72
2021/12/14 09:30:21;;;;;;;10.15;4.20;;;;;;;;;;5029967;28;20329;-71
2021/12/14 09:32:47;;;;;;;12.82;3.80;;;;;;;;;;5035575;28;20026;-70
2021/12/14 09:35:18;;;;;;;7.22;3.70;;;;;;;;;;5018041;28;20091;-70
2021/12/14 09:37:47;;;;;;;34.35;3.75;;;;;;;;;;5014126;28;20037;-71
2021/12/14 09:40:36;;;;;;;9.18;3.30;;;;;;;;;;5042475;28;20557;-71
2021/12/14 09:43:02;;;;;;;30.23;4.10;;;;;;;;;;5008127;28;20065;-71
2021/12/14 09:45:33;;;;;;;8.57;2.95;;;;;;;;;;5025547;28;20033;-70
2021/12/14 09:48:01;;;;;;;7.25;3.15;;;;;;;;;;5034568;28;20062;-71
2021/12/14 09:50:30;;;;;;;14.38;3.50;;;;;;;;;;5044527;28;20111;-70
2021/12/14 09:52:58;;;;;;;11.10;3.75;;;;;;;;;;5020767;28;20033;-71
2021/12/14 09:55:28;;;;;;;8.55;3.25;;;;;;;;;;5043331;28;20049;-70
2021/12/14 09:58:00;;;;;;;12.00;4.00;;;;;;;;;;5046325;28;20025;-71
2021/12/14 10:00:34;;;;;;;9.38;3.22;;;;;;;;;;5036667;28;20450;-70
2021/12/14 10:03:00;;;;;;;;;;;;;;;;;;5030378;28;20040;-71
2021/12/14 10:05:32;;;;;;;10.82;2.42;;;;;;;;;;5026348;28;19926;-69
2021/12/14 10:08:00;;;;;;;7.93;2.60;;;;;;;;;;5026471;28;20034;-72
2021/12/14 10:10:29;;;;;;;11.02;3.28;;;;;;;;;;5027444;28;20030;-72
2021/12/14 10:12:56;;;;;;;13.30;2.78;;;;;;;;;;5035032;28;20084;-72
2021/12/14 10:15:25;;;;;;;113.80;4.45;;;;;;;;;;5035871;28;20097;-72
2021/12/14 10:17:53;;;;;;;158.30;5.25;;;;;;;;;;5024974;28;20048;-71
2021/12/14 10:20:28;;;;;;;129.27;4.82;;;;;;;;;;5040167;28;20025;-71
2021/12/14 10:22:54;;;;;;;73.57;3.35;;;;;;;;;;5038151;28;20045;-71
2021/12/14 10:25:22;;;;;;;159.88;4.65;;;;;;;;;;5026169;28;20025;-72
2021/12/14 10:27:48;;;;;;;110.10;3.83;;;;;;;;;;5019665;28;20030;-70
2021/12/14 10:30:38;;;;;;;115.13;3.60;;;;;;;;;;5031302;28;20050;-71
2021/12/14 10:33:05;;;;;;;86.05;2.88;;;;;;;;;;5021208;28;20113;-70
2021/12/14 10:35:39;;;;;;;104.65;3.78;;;;;;;;;;5036105;28;20037;-72
2021/12/14 10:38:15;;;;;;;101.22;3.55;;;;;;;;;;5041339;28;20029;-71
2021/12/14 10:43:28;;;;;;;56.63;4.70;;;;;;;;;;5030337;28;20530;-70
2021/12/14 10:45:58;;;;;;;92.07;4.80;;;;;;;;;;5038840;28;20048;-70
2021/12/14 10:48:32;;;;;;;82.65;6.45;;;;;;;;;;5013040;28;20025;-69
2021/12/14 10:51:01;;;;;;;44.78;5.68;;;;;;;;;;5045081;28;20037;-71
2021/12/14 10:53:27;;;;;;;11.27;4.63;;;;;;;;;;5027035;28;20489;-70
2021/12/14 10:55:58;;;;;;;8.38;3.90;;;;;;;;;;5044423;28;20041;-71
2021/12/14 10:58:28;;;;;;;51.67;4.60;;;;;;;;;;5043907;28;20135;-70
2021/12/14 11:01:02;;;;;;;8.70;2.10;;;;;;;;;;5024694;28;20037;-71
2021/12/14 11:03:35;;;;;;;94.65;3.63;;;;;;;;;;5034091;28;20056;-70
2021/12/14 11:06:06;;;;;;;44.90;2.30;;;;;;;;;;5019259;28;20117;-72
2021/12/14 11:10:59;;;;;;;51.63;2.60;;;;;;;;;;5025357;28;20030;-71
2021/12/14 11:13:25;;;;;;;63.13;2.65;;;;;;;;;;5023670;28;20037;-69
2021/12/14 11:15:54;;;;;;;40.55;2.20;;;;;;;;;;5017100;28;20217;-73
2021/12/14 11:18:24;;;;;;;15.00;1.85;;;;;;;;;;5014002;28;20425;-70
2021/12/14 11:20:57;;;;;;;19.88;2.13;;;;;;;;;;5019174;28;20033;-70
2021/12/14 11:23:59;;;;;;;47.78;2.38;;;;;;;;;;5031988;28;20040;-70
2021/12/14 11:26:35;;;;;;;48.67;2.40;;;;;;;;;;5001581;28;20049;-71
2021/12/14 11:29:06;;;;;;;39.97;2.22;;;;;;;;;;5016967;28;20026;-70
2021/12/14 11:31:36;;;;;;;79.32;2.92;;;;;;;;;;5014543;28;20049;-71
2021/12/14 11:34:09;;;;;;;7.40;1.65;;;;;;;;;;5008447;28;20045;-70
2021/12/14 11:36:38;;;;;;;5.43;1.63;;;;;;;;;;5042335;28;20064;-70
2021/12/14 11:39:35;;;;;;;4.65;1.58;;;;;;;;;;5043000;28;20082;-70
2021/12/14 11:42:03;;;;;;;4.43;1.73;;;;;;;;;;5024708;28;20049;-70
2021/12/14 11:44:30;;;;;;;16.20;2.00;;;;;;;;;;5042898;28;20048;-71
2021/12/14 11:47:01;;;;;;;27.83;2.17;;;;;;;;;;5011963;28;20069;-70
2021/12/14 11:49:53;;;;;;;19.98;1.98;;;;;;;;;;5028438;28;20026;-71
2021/12/14 11:53:06;;;;;;;7.90;1.80;;;;;;;;;;5012969;28;20030;-70
2021/12/14 11:55:44;;;;;;;5.90;1.80;;;;;;;;;;5004854;28;20069;-70
2021/12/14 11:58:43;;;;;;;7.13;2.22;;;;;;;;;;5007361;28;20021;-70
2021/12/14 12:01:33;;;;;;;8.40;2.10;;;;;;;;;;5010627;28;20097;-71
2021/12/14 12:04:15;;;;;;;7.43;1.67;;;;;;;;;;5026321;28;20064;-69
2021/12/14 12:09:41;;;;;;;6.38;2.08;;;;;;;;;;5043666;28;20021;-69
2021/12/14 12:12:16;;;;;;;6.22;1.80;;;;;;;;;;5026226;28;20040;-71
2021/12/14 12:15:04;;;;;;;2.70;1.50;;;;;;;;;;5026464;28;20025;-69
2021/12/14 12:17:36;;;;;;;5.13;1.45;;;;;;;;;;5026027;28;20093;-70
2021/12/14 12:20:09;;;;;;;6.57;1.65;;;;;;;;;;5026406;28;20041;-70
2021/12/14 12:22:37;;;;;;;;;;;;;;;;;;5026395;28;20038;-71
2021/12/14 12:25:26;;;;;;;6.05;1.77;;;;;;;;;;5026134;28;19909;-70
2021/12/14 12:27:56;;;;;;;7.03;2.13;;;;;;;;;;5025721;28;20032;-71
2021/12/14 12:30:36;;;;;;;9.25;2.63;;;;;;;;;;5043870;28;20163;-70
2021/12/14 12:33:25;;;;;;;9.75;2.75;;;;;;;;;;5025779;28;20056;-70
2021/12/14 12:35:57;;;;;;;3.80;1.85;;;;;;;;;;5025603;28;20025;-69
2021/12/14 12:38:44;;;;;;;5.80;1.73;;;;;;;;;;5025433;28;20055;-70
2021/12/14 12:41:12;;;;;;;5.07;1.70;;;;;;;;;;5025480;28;20029;-70
2021/12/14 12:44:05;;;;;;;8.30;2.17;;;;;;;;;;5025735;28;20034;-71
2021/12/14 12:46:30;;;;;;;9.10;3.05;;;;;;;;;;5043172;28;20041;-70
2021/12/14 12:49:12;;;;;;;11.35;3.13;;;;;;;;;;5026358;28;20033;-72
2021/12/14 12:51:41;;;;;;;7.07;1.70;;;;;;;;;;5032181;28;20033;-70
2021/12/14 12:54:31;;;;;;;9.15;2.47;;;;;;;;;;5031973;28;20052;-70
2021/12/14 12:57:11;;;;;;;12.00;2.90;;;;;;;;;;5032016;28;20109;-71
2021/12/14 12:59:50;;;;;;;5.20;2.30;;;;;;;;;;5032296;28;20083;-70
2021/12/14 13:02:21;;;;;;;6.85;2.90;;;;;;;;;;5031921;28;20056;-71
2021/12/14 13:04:50;;;;;;;8.55;2.97;;;;;;;;;;5032127;28;20068;-70
2021/12/14 13:07:16;;;;;;;6.75;2.17;;;;;;;;;;5032078;28;20033;-70
2021/12/14 13:10:03;;;;;;;6.65;2.10;;;;;;;;;;5032105;28;20033;-70
2021/12/14 13:13:15;;;;;;;5.70;1.60;;;;;;;;;;5031747;28;20052;-69
2021/12/14 13:15:57;;;;;;;5.05;1.70;;;;;;;;;;5019064;28;20045;-69
2021/12/14 13:18:31;;;;;;;5.22;1.42;;;;;;;;;;5031726;28;20029;-70
2021/12/14 13:21:06;;;;;;;6.22;1.60;;;;;;;;;;5031924;28;20092;-70
2021/12/14 13:23:58;;;;;;;4.63;1.40;;;;;;;;;;5031849;28;20049;-69
2021/12/14 13:26:31;;;;;;;5.35;1.80;;;;;;;;;;5031790;28;20045;-71
2021/12/14 13:29:29;;;;;;;7.40;2.20;;;;;;;;;;5032243;28;20039;-71
2021/12/14 13:32:35;;;;;;;7.85;2.20;;;;;;;;;;5031681;28;20049;-70
2021/12/14 13:35:19;;;;;;;9.02;2.33;;;;;;;;;;5031535;28;20029;-70
2021/12/14 13:37:47;;;;;;;;;;;;;;;;;;5031909;28;20029;-70
2021/12/14 13:40:21;;;;;;;3.90;1.77;;;;;;;;;;5031357;28;20008;-70
2021/12/14 13:43:21;;;;;;;3.47;1.25;;;;;;;;;;5049563;28;20085;-69
2021/12/14 13:45:57;;;;;;;5.63;1.75;;;;;;;;;;5048956;28;20087;-70
2021/12/14 13:48:34;;;;;;;3.88;1.48;;;;;;;;;;5031423;28;20040;-69
2021/12/14 13:51:21;;;;;;;3.63;1.25;;;;;;;;;;5049402;28;20029;-69
2021/12/14 13:53:48;;;;;;;4.25;1.42;;;;;;;;;;5031736;28;20021;-70
2021/12/14 13:56:24;;;;;;;4.50;1.30;;;;;;;;;;5031714;28;20475;-70
2021/12/14 13:58:51;;;;;;;6.10;1.52;;;;;;;;;;5031801;28;20034;-70
2021/12/14 14:01:23;;;;;;;7.63;1.52;;;;;;;;;;5029220;28;20034;-69
2021/12/14 14:03:55;;;;;;;3.38;1.35;;;;;;;;;;5046449;28;20062;-70
2021/12/14 14:06:21;;;;;;;6.18;1.30;;;;;;;;;;5028421;28;20056;-69
2021/12/14 14:08:59;;;;;;;5.72;1.05;;;;;;;;;;5028476;28;20120;-70
2021/12/14 14:11:34;;;;;;;4.10;1.50;;;;;;;;;;5028236;28;20500;-70
2021/12/14 14:14:27;;;;;;;3.58;1.20;;;;;;;;;;5028425;28;20029;-70
2021/12/14 14:17:08;;;;;;;8.70;1.67;;;;;;;;;;5028099;28;20116;-70
2021/12/14 14:19:43;;;;;;;4.70;1.20;;;;;;;;;;5028447;28;20028;-70
2021/12/14 14:22:24;;;;;;;6.30;1.50;;;;;;;;;;5028139;28;20060;-69
2021/12/14 14:24:59;;;;;;;6.97;1.20;;;;;;;;;;5028279;28;20068;-69
2021/12/14 14:27:47;;;;;;;6.78;1.05;;;;;;;;;;5027719;28;20048;-70
2021/12/14 14:30:28;;;;;;;7.72;1.58;;;;;;;;;;5027635;28;20132;-70
2021/12/14 14:33:19;;;;;;;8.10;1.30;;;;;;;;;;5027654;28;20465;-69
2021/12/14 14:35:53;;;;;;;4.10;1.17;;;;;;;;;;5028096;28;20462;-71
2021/12/14 14:38:25;;;;;;;;;;;;;;;;;;5024073;28;20373;-69
2021/12/14 14:40:51;;;;;;;5.93;1.50;;;;;;;;;;5032833;28;19920;-70
2021/12/14 14:43:17;;;;;;;8.20;1.60;;;;;;;;;;5008815;28;20049;-70
2021/12/14 14:45:43;;;;;;;8.57;1.75;;;;;;;;;;5008154;28;20041;-69
2021/12/14 14:48:27;;;;;;;8.00;1.17;;;;;;;;;;5023610;28;20033;-69
2021/12/14 14:50:53;;;;;;;5.65;1.30;;;;;;;;;;5019677;28;20047;-71
2021/12/14 14:53:41;;;;;;;11.85;1.55;;;;;;;;;;5010018;28;20057;-70
2021/12/14 14:56:12;;;;;;;6.75;1.50;;;;;;;;;;5008577;28;20026;-70
2021/12/14 14:58:39;;;;;;;6.05;1.40;;;;;;;;;;5008364;28;20033;-69
2021/12/14 15:01:07;;;;;;;4.35;1.17;;;;;;;;;;5021632;28;20097;-71
2021/12/14 15:03:38;;;;;;;6.57;1.27;;;;;;;;;;5021731;28;20514;-69
2021/12/14 15:06:06;;;;;;;5.45;1.25;;;;;;;;;;5008611;28;20082;-69
2021/12/14 15:08:56;;;;;;;5.40;1.35;;;;;;;;;;5008313;28;20596;-69
2021/12/14 15:11:38;;;;;;;5.72;1.20;;;;;;;;;;5008314;28;20034;-69
2021/12/14 15:14:12;;;;;;;12.90;1.63;;;;;;;;;;5025938;28;20072;-69
2021/12/14 15:16:40;;;;;;;10.05;1.30;;;;;;;;;;5025897;28;20029;-69
2021/12/14 15:19:07;;;;;;;3.63;1.10;;;;;;;;;;5042108;28;20033;-70
2021/12/14 15:22:07;;;;;;;8.00;1.38;;;;;;;;;;5017378;28;20042;-69
2021/12/14 15:24:33;;;;;;;6.82;1.42;;;;;;;;;;5011704;28;20033;-70
2021/12/14 15:52:14;;;;;;;5.20;1.20;;;;;;;;;;4809297;29;20053;-71
2021/12/14 15:58:26;;;;;;;4.85;0.90;;;;;;;;;;4851610;29;20102;-69
2021/12/14 16:01:18;;;;;;;10.77;2.58;;;;;;;;;;4888727;29;20036;-71
2021/12/14 16:03:45;;;;;;;13.02;2.05;;;;;;;;;;4922394;29;20120;-70
2021/12/14 16:06:12;;;;;;;4.32;1.42;;;;;;;;;;4920106;29;20048;-69
2021/12/14 16:08:42;;;;;;;5.70;1.75;;;;;;;;;;4971740;28;20041;-70
2021/12/14 16:11:31;;;;;;;13.27;1.83;;;;;;;;;;5005732;28;20037;-70
2021/12/14 16:16:50;;;;;;;11.10;2.10;;;;;;;;;;5023968;28;20085;-70
2021/12/14 16:19:25;;;;;;;11.48;1.90;;;;;;;;;;5005691;28;20030;-69
2021/12/14 16:21:52;;;;;;;12.23;1.88;;;;;;;;;;5002067;28;20060;-70